Time;durP1;ratioP1;P1;durP2;ratioP2;P2;SDS_P1;SDS_P2;PMS_P1;PMS_P2;Temp;Humidity;BMP_temperature;BMP_pressure;BME280_temperature;BME280_humidity;BME280_pressure;Samples;Min_cycle;Max_cycle;Signal;HPM_P1;HPM_P2
2023/04/25 00:02:28;;;;;;;41.70;7.70;;;16.80;58.30;;;;;;5069303;28;20733;-91
2023/04/25 00:04:57;;;;;;;49.27;8.53;;;16.80;58.30;;;;;;5058030;28;20213;-91
2023/04/25 00:07:26;;;;;;;49.30;8.07;;;16.80;58.30;;;;;;5066443;28;20302;-92
2023/04/25 00:09:59;;;;;;;35.77;7.07;;;16.80;58.30;;;;;;5071477;28;20257;-92
2023/04/25 00:12:28;;;;;;;42.13;7.60;;;16.80;58.30;;;;;;5070870;28;20226;-91
2023/04/25 00:14:57;;;;;;;58.80;8.70;;;16.80;58.30;;;;;;5071354;28;20199;-91
2023/04/25 00:17:28;;;;;;;45.17;7.63;;;16.80;58.30;;;;;;5067609;28;20195;-91
2023/04/25 00:19:55;;;;;;;42.63;7.53;;;16.80;58.30;;;;;;5058170;28;20326;-91
2023/04/25 00:22:22;;;;;;;33.23;7.10;;;16.80;58.30;;;;;;5069133;28;20328;-90
2023/04/25 00:24:49;;;;;;;41.80;7.47;;;16.80;58.30;;;;;;5068068;28;20313;-90
2023/04/25 00:27:16;;;;;;;36.53;7.23;;;16.80;58.30;;;;;;5067941;28;20239;-90
2023/04/25 00:29:43;;;;;;;49.40;8.20;;;16.80;58.30;;;;;;5064219;28;20204;-90
2023/04/25 00:32:10;;;;;;;36.87;7.20;;;16.70;58.20;;;;;;5067628;28;20290;-90
2023/04/25 00:34:39;;;;;;;37.20;7.43;;;16.70;58.20;;;;;;5068717;28;20576;-90
2023/04/25 00:37:06;;;;;;;36.83;7.20;;;16.70;58.20;;;;;;5065616;28;20221;-90
2023/04/25 00:39:33;;;;;;;35.13;6.70;;;16.70;58.20;;;;;;5067521;28;20299;-90
2023/04/25 00:42:02;;;;;;;39.13;7.53;;;16.70;58.80;;;;;;5066377;28;20219;-91
2023/04/25 00:44:31;;;;;;;36.97;7.17;;;16.70;58.20;;;;;;5069263;28;20214;-90
2023/04/25 00:46:59;;;;;;;52.73;8.37;;;16.70;58.20;;;;;;5065014;28;20604;-90
2023/04/25 00:49:26;;;;;;;31.70;6.60;;;16.70;58.20;;;;;;5067826;28;20265;-90
2023/04/25 00:51:54;;;;;;;36.60;7.33;;;16.70;58.20;;;;;;5068147;28;20220;-90
2023/04/25 00:54:22;;;;;;;48.00;8.20;;;16.70;58.20;;;;;;5068252;28;20305;-90
2023/04/25 00:56:49;;;;;;;79.67;10.63;;;16.60;58.20;;;;;;5065691;28;20214;-89
2023/04/25 00:59:16;;;;;;;40.00;7.27;;;16.60;58.10;;;;;;5061654;28;20209;-90
2023/04/25 01:01:44;;;;;;;36.57;7.17;;;16.60;58.20;;;;;;5068379;28;20235;-91
2023/04/25 01:04:11;;;;;;;41.77;7.80;;;16.60;58.10;;;;;;5068469;28;20210;-90
2023/04/25 01:06:38;;;;;;;43.97;7.43;;;16.60;58.10;;;;;;5068768;28;20281;-90
2023/04/25 01:09:07;;;;;;;42.73;6.93;;;16.60;58.10;;;;;;5069144;28;20199;-91
2023/04/25 01:11:34;;;;;;;41.57;7.47;;;16.60;58.10;;;;;;5068684;28;20309;-91
2023/04/25 01:14:02;;;;;;;33.60;6.87;;;16.50;58.00;;;;;;5069067;28;20273;-91
2023/04/25 01:16:29;;;;;;;36.77;7.13;;;16.50;58.00;;;;;;5068721;28;20189;-91
2023/04/25 01:18:57;;;;;;;47.90;8.43;;;16.50;58.00;;;;;;5068375;28;20211;-92
2023/04/25 01:21:27;;;;;;;35.20;6.97;;;16.50;58.00;;;;;;5067708;28;20317;-92
2023/04/25 01:23:55;;;;;;;40.93;7.07;;;16.50;58.00;;;;;;5065482;28;20201;-92
2023/04/25 01:26:23;;;;;;;34.60;7.07;;;16.50;58.00;;;;;;5067541;28;20319;-92
2023/04/25 01:28:51;;;;;;;55.43;9.00;;;16.50;58.00;;;;;;5065238;28;20853;-91
2023/04/25 01:31:19;;;;;;;46.50;8.10;;;16.50;58.00;;;;;;5065813;28;20246;-91
2023/04/25 01:33:47;;;;;;;38.10;7.20;;;16.40;58.00;;;;;;5067078;28;20253;-91
2023/04/25 01:36:15;;;;;;;59.20;8.87;;;16.40;58.00;;;;;;5062584;28;20301;-92
2023/04/25 01:38:46;;;;;;;31.43;6.70;;;16.40;58.00;;;;;;5059084;28;20201;-91
2023/04/25 01:41:13;;;;;;;42.13;7.40;;;16.40;58.00;;;;;;5065984;28;20231;-91
2023/04/25 01:43:41;;;;;;;41.23;7.53;;;16.40;58.00;;;;;;5066006;28;20228;-92
2023/04/25 01:46:08;;;;;;;55.97;8.63;;;16.40;58.00;;;;;;5066136;28;20204;-92
2023/04/25 01:48:36;;;;;;;52.03;8.17;;;16.40;58.00;;;;;;5066837;28;20206;-91
2023/04/25 01:51:06;;;;;;;60.60;8.97;;;16.30;57.90;;;;;;5066222;28;20290;-91
2023/04/25 01:53:33;;;;;;;43.97;7.33;;;16.30;57.90;;;;;;5064065;28;20711;-90
2023/04/25 01:56:02;;;;;;;40.70;7.50;;;16.40;58.00;;;;;;5068534;28;20741;-91
2023/04/25 01:58:29;;;;;;;55.37;8.50;;;16.30;57.90;;;;;;5069974;28;20231;-91
2023/04/25 02:00:56;;;;;;;40.80;7.43;;;16.30;57.90;;;;;;5073352;28;20299;-92
2023/04/25 02:03:23;;;;;;;42.80;7.03;;;16.30;58.00;;;;;;5062029;28;20298;-92
2023/04/25 02:05:50;;;;;;;52.97;8.10;;;16.30;57.90;;;;;;5086785;28;20190;-90
2023/04/25 02:08:18;;;;;;;47.63;7.87;;;16.30;57.90;;;;;;5091600;28;20199;-92
2023/04/25 02:10:45;;;;;;;46.47;7.50;;;16.30;58.00;;;;;;5080131;28;20197;-91
2023/04/25 02:13:14;;;;;;;39.67;7.20;;;16.20;57.90;;;;;;5070128;28;20302;-91
2023/04/25 02:15:41;;;;;;;26.77;5.93;;;16.30;58.00;;;;;;5070544;28;20234;-91
2023/04/25 02:18:10;;;;;;;38.43;7.47;;;16.20;57.90;;;;;;5072079;28;20202;-92
2023/04/25 02:20:38;;;;;;;37.97;7.07;;;16.20;57.90;;;;;;5073011;28;20748;-91
2023/04/25 02:23:05;;;;;;;38.97;7.30;;;16.20;57.90;;;;;;5069853;28;20311;-91
2023/04/25 02:25:32;;;;;;;52.73;8.23;;;16.20;57.90;;;;;;5069963;28;20344;-90
2023/04/25 02:27:59;;;;;;;48.03;7.47;;;16.20;58.00;;;;;;5069027;28;20634;-91
2023/04/25 02:30:28;;;;;;;54.73;8.03;;;16.20;58.00;;;;;;5051758;28;20654;-91
2023/04/25 02:32:55;;;;;;;38.20;6.90;;;16.20;58.00;;;;;;5071141;28;20287;-91
2023/04/25 02:35:22;;;;;;;50.63;8.30;;;16.10;57.90;;;;;;5069405;28;20227;-92
2023/04/25 02:37:49;;;;;;;40.97;7.73;;;16.10;57.90;;;;;;5070498;28;20262;-92
2023/04/25 02:40:19;;;;;;;35.70;7.00;;;16.10;57.90;;;;;;5073288;28;20237;-92
2023/04/25 02:42:46;;;;;;;34.70;6.47;;;16.10;58.50;;;;;;5071110;28;20217;-92
2023/04/25 02:45:13;;;;;;;57.37;9.00;;;16.10;57.90;;;;;;5067486;28;20207;-92
2023/04/25 02:47:44;;;;;;;47.63;7.83;;;16.10;57.90;;;;;;5069982;28;20292;-92
2023/04/25 02:50:12;;;;;;;40.27;7.70;;;16.10;57.90;;;;;;5070293;28;20207;-92
2023/04/25 02:52:39;;;;;;;37.17;7.07;;;16.20;58.00;;;;;;5068851;28;20209;-92
2023/04/25 02:55:07;;;;;;;40.50;7.83;;;16.00;57.80;;;;;;5070485;28;20811;-92
2023/04/25 02:57:33;;;;;;;37.77;7.37;;;16.10;57.90;;;;;;5071001;28;20303;-91
2023/04/25 03:00:02;;;;;;;33.47;7.23;;;16.00;57.80;;;;;;5074028;28;20219;-91
2023/04/25 03:02:29;;;;;;;38.93;6.70;;;16.10;57.90;;;;;;5072911;28;20288;-91
2023/04/25 03:04:58;;;;;;;52.13;8.80;;;16.00;57.80;;;;;;5070598;28;20211;-92
2023/04/25 03:07:25;;;;;;;37.13;6.93;;;16.10;57.90;;;;;;5071001;28;20240;-91
2023/04/25 03:09:52;;;;;;;44.80;7.70;;;16.00;57.80;;;;;;5070624;28;20214;-91
2023/04/25 03:12:19;;;;;;;42.43;7.47;;;16.00;57.80;;;;;;5071436;28;20211;-91
2023/04/25 03:14:46;;;;;;;30.33;6.37;;;16.00;57.80;;;;;;5071061;28;20213;-91
2023/04/25 03:17:13;;;;;;;36.50;7.30;;;16.00;57.80;;;;;;5071039;28;20253;-92
2023/04/25 03:19:40;;;;;;;50.23;8.13;;;16.00;57.90;;;;;;5070188;28;20232;-92
2023/04/25 03:22:08;;;;;;;35.90;6.70;;;16.00;57.80;;;;;;5069347;28;20235;-91
2023/04/25 03:24:37;;;;;;;45.77;8.27;;;15.90;57.80;;;;;;5069965;28;20203;-92
2023/04/25 03:27:04;;;;;;;32.60;6.80;;;16.00;57.80;;;;;;5070333;28;20203;-91
2023/04/25 03:29:31;;;;;;;39.10;7.30;;;15.90;57.80;;;;;;5069160;28;20283;-91
2023/04/25 03:31:58;;;;;;;36.30;6.87;;;15.90;57.80;;;;;;5068573;28;20259;-91
2023/04/25 03:34:25;;;;;;;49.43;8.03;;;15.90;57.80;;;;;;5069156;28;20730;-92
2023/04/25 03:36:52;;;;;;;35.33;7.20;;;15.90;57.80;;;;;;5070697;28;20833;-91
2023/04/25 03:39:21;;;;;;;57.50;8.87;;;15.90;57.80;;;;;;5066721;28;20210;-91
2023/04/25 03:41:48;;;;;;;38.33;6.80;;;15.90;57.80;;;;;;5060790;28;20229;-91
2023/04/25 03:44:15;;;;;;;44.70;7.53;;;15.90;57.80;;;;;;5051766;28;20208;-91
2023/04/25 03:46:42;;;;;;;40.03;7.13;;;15.80;57.70;;;;;;5068685;28;20739;-90
2023/04/25 03:49:09;;;;;;;43.63;7.80;;;15.90;57.80;;;;;;5069665;28;20285;-91
2023/04/25 03:51:36;;;;;;;49.40;8.33;;;15.80;57.70;;;;;;5068455;28;20204;-91
2023/04/25 03:54:03;;;;;;;40.73;7.63;;;15.80;57.70;;;;;;5069034;28;20307;-91
2023/04/25 03:56:31;;;;;;;44.30;7.30;;;15.80;57.70;;;;;;5070160;28;20297;-91
2023/04/25 03:58:58;;;;;;;41.53;7.63;;;15.80;57.70;;;;;;5067968;28;20240;-91
2023/04/25 04:01:25;;;;;;;40.53;6.97;;;15.80;57.70;;;;;;5068368;28;20267;-92
2023/04/25 04:03:52;;;;;;;42.60;7.63;;;15.70;58.20;;;;;;5068151;28;20235;-90
2023/04/25 04:06:20;;;;;;;38.87;7.30;;;15.70;57.70;;;;;;5066783;28;20575;-90
2023/04/25 04:08:47;;;;;;;43.93;7.30;;;15.70;57.70;;;;;;5068702;28;20199;-91
2023/04/25 04:11:15;;;;;;;36.00;7.07;;;15.70;57.70;;;;;;5065061;28;20565;-91
2023/04/25 04:13:43;;;;;;;36.73;7.03;;;15.70;57.60;;;;;;5066290;28;20230;-91
2023/04/25 04:16:10;;;;;;;44.27;7.57;;;15.70;57.70;;;;;;5068484;28;20818;-90
2023/04/25 04:18:37;;;;;;;37.90;6.57;;;15.70;57.70;;;;;;5066992;28;20715;-92
2023/04/25 04:21:04;;;;;;;39.73;7.30;;;15.70;57.70;;;;;;5067909;28;20322;-90
2023/04/25 04:23:31;;;;;;;41.30;6.77;;;15.70;57.70;;;;;;5068054;28;20659;-91
2023/04/25 04:25:58;;;;;;;44.30;7.47;;;15.70;57.70;;;;;;5069131;28;20285;-91
2023/04/25 04:28:26;;;;;;;45.47;7.77;;;15.70;57.70;;;;;;5068716;28;20289;-91
2023/04/25 04:30:55;;;;;;;66.23;8.80;;;15.70;57.70;;;;;;5067077;28;20734;-91
2023/04/25 04:33:23;;;;;;;41.50;7.37;;;15.60;57.60;;;;;;5065210;28;20207;-91
2023/04/25 04:35:52;;;;;;;51.60;8.17;;;15.70;57.70;;;;;;5068717;28;20210;-91
2023/04/25 04:38:19;;;;;;;35.40;6.80;;;15.60;57.60;;;;;;5068952;28;20280;-91
2023/04/25 04:40:47;;;;;;;42.33;7.50;;;15.60;57.60;;;;;;5067721;28;20203;-91
2023/04/25 04:43:16;;;;;;;33.87;6.83;;;15.60;57.60;;;;;;5067142;28;20201;-90
2023/04/25 04:45:44;;;;;;;55.73;8.40;;;15.60;57.60;;;;;;5067440;28;20208;-90
2023/04/25 04:48:18;;;;;;;56.40;8.37;;;15.60;57.60;;;;;;5067116;28;20223;-91
2023/04/25 04:50:49;;;;;;;57.17;8.83;;;15.60;57.60;;;;;;5059258;28;20226;-91
2023/04/25 04:53:16;;;;;;;60.97;8.93;;;15.60;57.60;;;;;;5071243;28;20201;-90
2023/04/25 04:55:43;;;;;;;45.20;7.77;;;15.60;57.60;;;;;;5083772;28;20216;-90
2023/04/25 04:58:12;;;;;;;33.97;6.37;;;15.60;57.70;;;;;;5069753;28;20725;-89
2023/04/25 05:00:40;;;;;;;35.40;6.20;;;15.60;57.60;;;;;;5070964;28;20279;-91
2023/04/25 05:03:06;;;;;;;38.03;7.23;;;15.50;57.60;;;;;;5066248;28;20207;-90
2023/04/25 05:05:35;;;;;;;37.47;6.83;;;15.50;57.60;;;;;;5068816;28;20568;-90
2023/04/25 05:08:14;;;;;;;44.77;7.47;;;15.50;57.70;;;;;;5068923;28;20788;-90
2023/04/25 05:10:41;;;;;;;40.43;6.87;;;15.60;57.70;;;;;;5068753;28;20615;-91
2023/04/25 05:13:08;;;;;;;49.37;7.90;;;15.50;57.60;;;;;;5065349;28;20212;-91
2023/04/25 05:15:35;;;;;;;41.87;7.17;;;15.50;57.60;;;;;;5067597;28;20219;-90
2023/04/25 05:18:03;;;;;;;50.13;7.93;;;15.50;57.60;;;;;;5068108;28;20274;-90
2023/04/25 05:20:30;;;;;;;40.47;7.40;;;15.50;57.60;;;;;;5068744;28;20261;-91
2023/04/25 05:22:58;;;;;;;37.43;7.17;;;15.50;57.60;;;;;;5068376;28;20307;-91
2023/04/25 05:25:28;;;;;;;43.03;7.47;;;15.50;57.60;;;;;;5068868;28;20303;-90
2023/04/25 05:27:56;;;;;;;43.53;7.37;;;15.50;57.60;;;;;;5050748;28;20207;-90
2023/04/25 05:30:23;;;;;;;33.40;6.47;;;15.40;57.50;;;;;;5066624;28;20258;-91
2023/04/25 05:32:51;;;;;;;39.73;7.20;;;15.50;57.60;;;;;;5066944;28;20350;-91
2023/04/25 05:35:18;;;;;;;51.43;8.00;;;15.40;57.50;;;;;;5065824;28;20235;-90
2023/04/25 05:37:45;;;;;;;45.73;7.63;;;15.40;57.50;;;;;;5086792;28;20332;-91
2023/04/25 05:40:14;;;;;;;61.07;8.90;;;15.40;57.50;;;;;;5068605;28;20202;-90
2023/04/25 05:42:41;;;;;;;40.83;7.13;;;15.40;57.50;;;;;;5070888;28;20693;-90
2023/04/25 05:45:10;;;;;;;56.00;8.23;;;15.30;57.50;;;;;;5066991;28;20620;-90
2023/04/25 05:47:37;;;;;;;43.40;7.47;;;15.40;57.50;;;;;;5058787;28;20235;-89
2023/04/25 05:50:10;;;;;;;30.13;6.03;;;15.40;57.50;;;;;;5080467;28;20201;-90
2023/04/25 05:52:39;;;;;;;35.90;6.87;;;15.40;57.50;;;;;;5078423;28;20258;-89
2023/04/25 05:55:13;;;;;;;27.83;5.97;;;15.40;57.50;;;;;;5069680;28;20214;-89
2023/04/25 05:57:44;;;;;;;25.17;5.90;;;15.30;57.50;;;;;;5063148;28;20231;-89
2023/04/25 06:00:14;;;;;;;64.07;8.97;;;15.30;57.50;;;;;;5062116;28;20657;-89
2023/04/25 06:02:42;;;;;;;39.80;7.47;;;15.30;57.50;;;;;;5067311;28;20227;-89
2023/04/25 06:05:09;;;;;;;37.57;6.73;;;15.30;57.50;;;;;;5066428;28;20269;-89
2023/04/25 06:07:36;;;;;;;38.23;7.50;;;15.30;57.50;;;;;;5066375;28;20643;-90
2023/04/25 06:10:06;;;;;;;33.50;6.80;;;15.30;57.50;;;;;;5064029;28;20719;-89
2023/04/25 06:12:34;;;;;;;35.23;6.80;;;15.30;57.50;;;;;;5066806;28;20204;-89
2023/04/25 06:15:02;;;;;;;37.20;6.20;;;15.30;57.50;;;;;;5068348;28;20279;-89
2023/04/25 06:17:29;;;;;;;35.43;6.93;;;15.30;57.60;;;;;;5067071;28;20219;-89
2023/04/25 06:19:55;;;;;;;33.47;6.40;;;15.30;57.60;;;;;;5067553;28;20760;-89
2023/04/25 06:22:22;;;;;;;39.00;7.03;;;15.30;57.60;;;;;;5059912;28;20921;-89
2023/04/25 06:24:49;;;;;;;39.77;6.97;;;15.30;58.20;;;;;;5061335;28;20724;-90
2023/04/25 06:27:16;;;;;;;43.73;7.80;;;15.30;57.60;;;;;;5055361;28;20294;-90
2023/04/25 06:29:47;;;;;;;31.33;5.90;;;15.30;57.60;;;;;;5066184;28;20688;-89
2023/04/25 06:32:14;;;;;;;28.63;6.03;;;15.30;57.60;;;;;;5057800;28;20298;-89
2023/04/25 06:34:41;;;;;;;33.87;7.17;;;15.20;57.60;;;;;;5066505;28;20759;-90
2023/04/25 06:37:09;;;;;;;36.10;6.77;;;15.20;57.60;;;;;;5066230;28;20318;-91
2023/04/25 06:39:36;;;;;;;34.77;6.83;;;15.20;57.60;;;;;;5063921;28;20261;-89
2023/04/25 06:42:03;;;;;;;40.53;7.37;;;15.30;57.70;;;;;;5064041;28;20323;-90
2023/04/25 06:44:30;;;;;;;38.27;7.20;;;15.20;57.60;;;;;;5066702;28;20559;-89
2023/04/25 06:46:59;;;;;;;47.30;7.73;;;15.30;57.70;;;;;;5077722;28;20214;-90
2023/04/25 06:49:26;;;;;;;47.30;7.80;;;15.30;57.70;;;;;;5070583;28;20204;-88
2023/04/25 06:51:52;;;;;;;36.67;6.70;;;15.30;57.70;;;;;;5054389;28;20287;-88
2023/04/25 06:54:20;;;;;;;38.10;6.93;;;15.30;57.70;;;;;;5067332;28;20202;-89
2023/04/25 06:56:47;;;;;;;41.77;7.43;;;15.20;57.70;;;;;;5066312;28;20680;-89
2023/04/25 06:59:14;;;;;;;37.37;6.77;;;15.20;57.60;;;;;;5063471;28;20287;-89
2023/04/25 07:01:41;;;;;;;37.07;6.43;;;15.20;57.70;;;;;;5066340;28;20294;-88
2023/04/25 07:04:09;;;;;;;36.53;6.77;;;15.20;57.70;;;;;;5068131;28;20259;-90
2023/04/25 07:06:37;;;;;;;58.40;8.70;;;15.20;57.70;;;;;;5069622;28;20253;-88
2023/04/25 07:09:06;;;;;;;47.77;7.37;;;15.30;57.80;;;;;;5071125;28;20266;-89
2023/04/25 07:11:33;;;;;;;47.03;7.53;;;15.20;57.70;;;;;;5067949;28;20280;-88
2023/04/25 07:14:00;;;;;;;39.63;7.17;;;15.30;57.70;;;;;;5070042;28;20294;-89
2023/04/25 07:16:27;;;;;;;33.40;6.23;;;15.20;57.70;;;;;;5057119;28;20240;-89
2023/04/25 07:18:54;;;;;;;34.07;6.57;;;15.20;57.70;;;;;;5051085;28;20241;-89
2023/04/25 07:21:22;;;;;;;43.20;7.07;;;15.20;57.70;;;;;;5064925;28;20704;-89
2023/04/25 07:23:49;;;;;;;30.37;6.17;;;15.20;57.70;;;;;;5070057;28;20338;-90
2023/04/25 07:26:16;;;;;;;31.30;6.03;;;15.30;57.80;;;;;;5068127;28;20198;-88
2023/04/25 07:28:43;;;;;;;28.70;6.00;;;15.30;57.80;;;;;;5069667;28;20207;-92
2023/04/25 07:31:12;;;;;;;34.60;6.33;;;15.30;57.70;;;;;;5070311;28;20299;-92
2023/04/25 07:33:40;;;;;;;47.27;7.97;;;15.30;57.80;;;;;;5068054;28;20215;-92
2023/04/25 07:36:08;;;;;;;31.83;6.20;;;15.30;57.80;;;;;;5067650;28;20219;-92
2023/04/25 07:38:36;;;;;;;31.07;6.37;;;15.30;57.80;;;;;;5070777;28;20216;-91
2023/04/25 07:41:03;;;;;;;21.27;5.33;;;15.30;57.80;;;;;;5070806;28;20536;-92
2023/04/25 07:43:30;;;;;;;31.73;6.00;;;15.30;57.80;;;;;;5068725;28;20261;-92
2023/04/25 07:45:58;;;;;;;38.73;6.73;;;15.30;57.80;;;;;;5067655;28;20725;-93
2023/04/25 07:48:25;;;;;;;29.07;5.80;;;15.30;57.80;;;;;;5068737;28;20235;-93
2023/04/25 07:50:52;;;;;;;33.23;6.37;;;15.30;57.80;;;;;;5071215;28;20199;-93
2023/04/25 07:53:19;;;;;;;42.53;7.70;;;15.30;57.80;;;;;;5051420;28;20203;-93
2023/04/25 07:55:47;;;;;;;32.87;6.63;;;15.30;57.80;;;;;;5068661;28;20226;-93
2023/04/25 07:58:15;;;;;;;24.37;5.70;;;15.40;57.90;;;;;;5069641;28;20262;-92
2023/04/25 08:00:43;;;;;;;32.27;6.43;;;15.30;57.80;;;;;;5052639;28;20195;-92
2023/04/25 08:03:11;;;;;;;42.13;7.43;;;15.30;57.80;;;;;;5063039;28;20230;-92
2023/04/25 08:05:38;;;;;;;29.10;5.63;;;15.30;57.80;;;;;;5069375;28;20575;-94
2023/04/25 08:08:06;;;;;;;25.77;5.63;;;15.30;57.80;;;;;;5067595;28;20235;-94
2023/04/25 08:10:33;;;;;;;44.60;7.03;;;15.40;57.90;;;;;;5066213;28;20264;-93
2023/04/25 08:13:02;;;;;;;30.37;6.27;;;15.30;57.80;;;;;;5066577;28;20227;-94
2023/04/25 08:15:30;;;;;;;36.93;6.80;;;15.40;57.90;;;;;;5049477;28;20262;-94
2023/04/25 08:17:56;;;;;;;28.60;6.13;;;15.40;57.90;;;;;;5069347;28;20227;-93
2023/04/25 08:20:24;;;;;;;19.13;5.07;;;15.40;57.90;;;;;;5066213;28;20264;-94
2023/04/25 08:22:52;;;;;;;56.90;8.40;;;15.40;57.90;;;;;;5068589;28;20767;-93
2023/04/25 08:25:20;;;;;;;26.80;5.90;;;15.40;57.90;;;;;;5070048;28;20247;-93
2023/04/25 08:27:48;;;;;;;28.83;6.00;;;15.40;57.90;;;;;;5069196;28;20571;-90
2023/04/25 08:30:16;;;;;;;30.13;5.83;;;15.40;57.90;;;;;;5054003;28;20227;-92
2023/04/25 08:32:44;;;;;;;21.57;5.40;;;15.40;57.90;;;;;;5068245;28;20874;-92
2023/04/25 08:35:11;;;;;;;28.97;6.10;;;15.40;57.90;;;;;;5068405;28;20303;-92
2023/04/25 08:37:38;;;;;;;38.00;6.73;;;15.40;57.90;;;;;;5067634;28;20306;-94
2023/04/25 08:40:10;;;;;;;38.23;6.80;;;15.40;57.90;;;;;;5069698;28;20214;-95
2023/04/25 08:42:39;;;;;;;33.10;6.33;;;15.50;58.00;;;;;;5065055;28;20221;-96
2023/04/25 08:45:10;;;;;;;52.57;8.17;;;15.50;58.00;;;;;;5067774;28;20295;-95
2023/04/25 08:47:39;;;;;;;29.97;5.77;;;15.50;58.00;;;;;;5065289;28;20678;-93
2023/04/25 08:50:08;;;;;;;39.00;6.60;;;15.50;58.00;;;;;;5065394;28;20200;-93
2023/04/25 08:52:39;;;;;;;42.90;7.07;;;15.50;58.00;;;;;;5065487;28;20242;-93
2023/04/25 08:55:10;;;;;;;29.87;6.03;;;15.50;58.00;;;;;;5059023;28;20214;-92
2023/04/25 08:57:38;;;;;;;30.00;5.93;;;15.50;58.00;;;;;;5067846;28;20203;-93
2023/04/25 09:00:07;;;;;;;38.23;6.77;;;15.50;58.00;;;;;;5061661;28;20257;-95
2023/04/25 09:02:38;;;;;;;24.73;5.60;;;15.60;58.20;;;;;;5066524;28;20227;-93
2023/04/25 09:05:09;;;;;;;30.40;5.70;;;15.60;58.10;;;;;;5058016;28;20679;-94
2023/04/25 09:07:36;;;;;;;37.17;6.23;;;15.60;58.10;;;;;;5056880;28;20212;-93
2023/04/25 09:10:04;;;;;;;42.27;6.90;;;15.60;58.20;;;;;;5076064;28;20184;-94
2023/04/25 09:12:31;;;;;;;34.87;6.67;;;15.60;58.10;;;;;;5091159;28;20202;-92
2023/04/25 09:15:09;;;;;;;21.87;5.50;;;15.70;58.20;;;;;;5090475;28;20205;-94
2023/04/25 09:17:44;;;;;;;26.70;5.73;;;15.70;58.30;;;;;;5074684;28;20202;-94
2023/04/25 09:20:13;;;;;;;18.60;4.80;;;15.70;58.30;;;;;;5059502;28;20203;-93
2023/04/25 09:22:42;;;;;;;13.97;4.60;;;15.70;58.30;;;;;;5063211;28;20269;-94
2023/04/25 09:25:11;;;;;;;44.60;7.17;;;15.80;58.30;;;;;;5058313;28;20214;-94
2023/04/25 09:27:51;;;;;;;23.30;5.60;;;15.80;58.30;;;;;;5069142;28;20205;-95
2023/04/25 09:30:18;;;;;;;27.00;5.83;;;15.80;58.40;;;;;;5070659;28;20203;-96
2023/04/25 09:32:46;;;;;;;25.17;5.57;;;15.80;58.30;;;;;;5069167;28;20207;-96
2023/04/25 09:35:25;;;;;;;28.70;5.33;;;15.90;58.40;;;;;;5071137;28;20291;-96
2023/04/25 09:37:52;;;;;;;30.13;5.80;;;15.90;58.40;;;;;;5064389;28;20315;-95
2023/04/25 09:40:19;;;;;;;55.40;7.77;;;15.90;58.40;;;;;;5071959;28;20204;-88
2023/04/25 09:42:47;;;;;;;53.47;7.93;;;15.90;58.00;;;;;;5067496;28;20261;-87
2023/04/25 09:45:14;;;;;;;31.13;5.87;;;16.00;57.00;;;;;;5067653;28;20205;-94
2023/04/25 09:47:43;;;;;;;20.37;5.53;;;16.00;56.60;;;;;;5068825;28;20209;-92
2023/04/25 09:50:20;;;;;;;31.50;5.97;;;16.00;56.80;;;;;;5066309;28;20235;-95
2023/04/25 09:53:02;;;;;;;58.57;9.17;;;16.00;57.00;;;;;;5066787;28;20635;-89
2023/04/25 09:55:32;;;;;;;25.00;5.10;;;16.00;56.80;;;;;;5069553;28;20237;-95
2023/04/25 09:58:05;;;;;;;25.63;5.40;;;16.00;56.80;;;;;;5068191;28;20265;-95
2023/04/25 10:00:33;;;;;;;26.53;5.37;;;16.00;57.10;;;;;;5069834;28;20242;-94
2023/04/25 10:03:03;;;;;;;27.97;6.03;;;16.00;57.30;;;;;;5068462;28;20235;-95
2023/04/25 10:05:38;;;;;;;43.30;6.77;;;16.00;57.40;;;;;;5067893;28;20610;-94
2023/04/25 10:08:08;;;;;;;32.17;6.13;;;16.00;57.50;;;;;;5067725;28;20237;-95
2023/04/25 10:10:36;;;;;;;29.47;6.07;;;16.00;57.60;;;;;;5071569;28;20287;-96
2023/04/25 10:13:06;;;;;;;30.83;6.03;;;16.00;57.60;;;;;;5074155;28;20189;-94
2023/04/25 10:15:36;;;;;;;27.70;5.97;;;16.00;57.60;;;;;;5051973;28;20198;-95
2023/04/25 10:18:04;;;;;;;33.43;6.37;;;16.00;57.60;;;;;;5060973;28;20716;-96
2023/04/25 10:20:33;;;;;;;28.90;5.70;;;16.10;57.80;;;;;;5069409;28;20212;-96
2023/04/25 10:23:08;;;;;;;28.20;5.90;;;16.10;57.90;;;;;;5069127;28;20280;-95
2023/04/25 10:25:35;;;;;;;23.87;5.17;;;16.10;57.90;;;;;;5055664;28;20613;-96
2023/04/25 10:28:04;;;;;;;19.97;4.87;;;16.20;58.00;;;;;;5049699;28;20222;-95
2023/04/25 10:30:32;;;;;;;28.77;5.60;;;16.10;57.90;;;;;;5050213;28;20210;-96
2023/04/25 10:33:00;;;;;;;25.07;5.50;;;16.20;58.00;;;;;;5067445;28;20216;-96
2023/04/25 10:35:29;;;;;;;24.83;5.10;;;16.20;58.00;;;;;;5068788;28;20203;-95
2023/04/25 10:38:04;;;;;;;56.93;7.90;;;16.20;58.00;;;;;;5067505;28;20219;-86
2023/04/25 10:40:32;;;;;;;55.33;7.83;;;16.30;57.30;;;;;;5070767;28;20257;-91
2023/04/25 10:43:35;;;;;;;30.63;6.20;;;16.30;57.50;;;;;;5069803;28;20402;-92
2023/04/25 10:46:03;;;;;;;29.73;5.73;;;16.30;57.60;;;;;;5065285;28;20213;-91
2023/04/25 10:48:31;;;;;;;27.67;5.37;;;16.30;57.80;;;;;;5067332;28;20204;-90
2023/04/25 10:51:23;;;;;;;33.30;5.97;;;16.40;57.90;;;;;;5069250;28;20285;-93
2023/04/25 10:54:01;;;;;;;32.20;6.13;;;16.40;58.00;;;;;;5061897;28;20663;-93
2023/04/25 10:56:30;;;;;;;29.90;5.43;;;16.40;58.00;;;;;;5064826;28;20198;-91
2023/04/25 10:59:08;;;;;;;42.93;6.63;;;16.40;58.00;;;;;;5068450;28;20249;-91
2023/04/25 11:01:39;;;;;;;44.37;7.17;;;16.50;58.00;;;;;;5076626;28;20223;-92
2023/04/25 11:04:07;;;;;;;30.07;5.60;;;16.50;58.00;;;;;;5071481;28;20292;-92
2023/04/25 11:06:47;;;;;;;26.37;5.90;;;16.50;58.00;;;;;;5066833;28;20232;-94
2023/04/25 11:09:16;;;;;;;23.10;4.87;;;16.50;58.10;;;;;;5071490;28;20255;-93
2023/04/25 11:11:43;;;;;;;20.43;4.97;;;16.60;58.20;;;;;;5069268;28;20256;-92
2023/04/25 11:14:11;;;;;;;25.57;5.30;;;16.60;58.10;;;;;;5071163;28;20246;-93
2023/04/25 11:16:38;;;;;;;30.67;6.30;;;16.70;58.20;;;;;;5069420;28;20263;-92
2023/04/25 11:19:05;;;;;;;48.63;6.90;;;16.70;58.20;;;;;;5069987;28;20273;-92
2023/04/25 11:21:32;;;;;;;28.83;5.63;;;16.70;58.20;;;;;;5069629;28;20507;-93
2023/04/25 11:24:01;;;;;;;34.67;6.23;;;16.80;58.30;;;;;;5071099;28;20655;-94
2023/04/25 11:26:34;;;;;;;23.17;5.23;;;16.80;58.20;;;;;;5070041;28;20204;-94
2023/04/25 11:29:01;;;;;;;24.60;5.37;;;16.80;58.20;;;;;;5071980;28;20242;-92
2023/04/25 11:31:28;;;;;;;44.43;6.90;;;16.80;58.10;;;;;;5047034;28;20198;-94
2023/04/25 11:33:58;;;;;;;24.10;5.00;;;16.90;58.20;;;;;;5070117;28;20681;-92
2023/04/25 11:36:26;;;;;;;19.03;5.00;;;16.90;58.20;;;;;;5070018;28;20222;-92
2023/04/25 11:38:54;;;;;;;34.10;6.27;;;16.90;58.10;;;;;;5069722;28;20586;-91
2023/04/25 11:41:21;;;;;;;26.20;5.47;;;17.00;58.20;;;;;;5069387;28;20325;-92
2023/04/25 11:43:51;;;;;;;27.07;5.57;;;17.00;58.20;;;;;;5070153;28;20395;-91
2023/04/25 11:46:19;;;;;;;42.00;7.17;;;17.00;58.10;;;;;;5066719;28;20209;-92
2023/04/25 11:48:47;;;;;;;24.73;5.53;;;17.00;58.10;;;;;;5067838;28;20203;-93
2023/04/25 11:51:15;;;;;;;34.90;6.23;;;17.00;58.10;;;;;;5066513;28;20213;-93
2023/04/25 11:53:43;;;;;;;30.40;6.03;;;17.10;58.80;;;;;;5067472;28;20251;-93
2023/04/25 11:56:11;;;;;;;28.80;5.40;;;17.00;58.10;;;;;;5066410;28;20302;-92
2023/04/25 11:58:58;;;;;;;30.03;5.90;;;17.10;58.10;;;;;;5068654;28;20275;-94
2023/04/25 12:01:30;;;;;;;44.60;7.10;;;17.10;58.10;;;;;;5068833;28;20214;-92
2023/04/25 12:03:57;;;;;;;28.53;6.00;;;17.10;58.10;;;;;;5063544;28;20348;-93
2023/04/25 12:06:28;;;;;;;24.10;5.27;;;17.20;58.10;;;;;;5070290;28;20207;-93
2023/04/25 12:09:05;;;;;;;45.37;7.13;;;17.20;58.10;;;;;;5065647;28;20199;-93
2023/04/25 12:11:33;;;;;;;21.60;4.80;;;17.20;58.10;;;;;;5062959;28;20230;-93
2023/04/25 12:14:05;;;;;;;37.33;6.37;;;17.20;58.10;;;;;;5068392;28;20221;-94
2023/04/25 12:16:42;;;;;;;21.53;5.57;;;17.20;58.00;;;;;;5062786;28;20294;-93
2023/04/25 12:19:09;;;;;;;29.13;6.17;;;17.20;58.00;;;;;;5069633;28;20210;-90
2023/04/25 12:21:36;;;;;;;69.00;9.10;;;17.30;58.10;;;;;;5067139;28;20210;-93
2023/04/25 12:24:12;;;;;;;29.17;6.30;;;17.20;58.00;;;;;;5081110;28;20260;-91
2023/04/25 12:26:51;;;;;;;26.17;6.03;;;17.30;58.00;;;;;;5071601;28;20205;-91
2023/04/25 12:29:21;;;;;;;27.03;5.73;;;17.30;58.00;;;;;;5056309;28;20298;-91
2023/04/25 12:31:48;;;;;;;38.97;6.73;;;17.30;58.00;;;;;;5067953;28;20321;-90
2023/04/25 12:34:16;;;;;;;49.67;7.33;;;17.30;58.00;;;;;;5066952;28;20558;-90
2023/04/25 12:36:43;;;;;;;28.67;5.83;;;17.30;58.00;;;;;;5067516;28;20310;-90
2023/04/25 12:39:15;;;;;;;31.07;5.93;;;17.30;58.00;;;;;;5066335;28;20302;-90
2023/04/25 12:41:42;;;;;;;35.00;6.30;;;17.30;58.00;;;;;;5076628;28;20231;-92
2023/04/25 12:44:09;;;;;;;28.53;5.70;;;17.40;58.00;;;;;;5092010;28;20218;-92